sensor_id;sensor_type;location;lat;lon;timestamp;P1;durP1;ratioP1;P2;durP2;ratioP2
30647;SDS011;17683;53.360;9.736;2022-08-16T00:01:28;15.57;;;14.15;;
30647;SDS011;17683;53.360;9.736;2022-08-16T00:03:55;16.35;;;14.75;;
30647;SDS011;17683;53.360;9.736;2022-08-16T00:06:21;14.57;;;13.13;;
30647;SDS011;17683;53.360;9.736;2022-08-16T00:08:47;15.82;;;14.32;;
30647;SDS011;17683;53.360;9.736;2022-08-16T00:11:13;15.23;;;13.52;;
30647;SDS011;17683;53.360;9.736;2022-08-16T00:13:39;16.38;;;14.77;;
30647;SDS011;17683;53.360;9.736;2022-08-16T00:16:05;17.52;;;14.00;;
30647;SDS011;17683;53.360;9.736;2022-08-16T00:18:30;15.13;;;13.65;;
30647;SDS011;17683;53.360;9.736;2022-08-16T00:20:56;15.27;;;13.73;;
30647;SDS011;17683;53.360;9.736;2022-08-16T00:23:23;16.05;;;14.13;;
30647;SDS011;17683;53.360;9.736;2022-08-16T00:25:49;17.45;;;13.27;;
30647;SDS011;17683;53.360;9.736;2022-08-16T00:28:15;15.80;;;14.07;;
30647;SDS011;17683;53.360;9.736;2022-08-16T00:30:41;14.55;;;12.88;;
30647;SDS011;17683;53.360;9.736;2022-08-16T00:33:06;14.25;;;12.95;;
30647;SDS011;17683;53.360;9.736;2022-08-16T00:35:34;14.98;;;13.60;;
30647;SDS011;17683;53.360;9.736;2022-08-16T00:38:01;15.10;;;13.35;;
30647;SDS011;17683;53.360;9.736;2022-08-16T00:43:09;14.20;;;12.50;;
30647;SDS011;17683;53.360;9.736;2022-08-16T00:45:52;13.98;;;12.57;;
30647;SDS011;17683;53.360;9.736;2022-08-16T00:48:33;14.40;;;13.00;;
30647;SDS011;17683;53.360;9.736;2022-08-16T00:51:00;14.25;;;12.95;;
30647;SDS011;17683;53.360;9.736;2022-08-16T00:53:27;15.25;;;13.50;;
30647;SDS011;17683;53.360;9.736;2022-08-16T00:55:54;14.57;;;13.25;;
30647;SDS011;17683;53.360;9.736;2022-08-16T00:58:23;14.80;;;13.20;;
30647;SDS011;17683;53.360;9.736;2022-08-16T01:00:52;14.43;;;13.13;;
30647;SDS011;17683;53.360;9.736;2022-08-16T01:03:20;14.57;;;13.05;;
30647;SDS011;17683;53.360;9.736;2022-08-16T01:05:48;13.95;;;12.25;;
30647;SDS011;17683;53.360;9.736;2022-08-16T01:08:16;14.07;;;12.55;;
30647;SDS011;17683;53.360;9.736;2022-08-16T01:10:45;14.82;;;12.15;;
30647;SDS011;17683;53.360;9.736;2022-08-16T01:13:15;16.05;;;14.55;;
30647;SDS011;17683;53.360;9.736;2022-08-16T01:15:45;15.57;;;13.85;;
30647;SDS011;17683;53.360;9.736;2022-08-16T01:18:16;16.13;;;14.57;;
30647;SDS011;17683;53.360;9.736;2022-08-16T01:20:47;14.77;;;13.23;;
30647;SDS011;17683;53.360;9.736;2022-08-16T01:23:57;14.05;;;12.85;;
30647;SDS011;17683;53.360;9.736;2022-08-16T01:26:36;16.08;;;14.38;;
30647;SDS011;17683;53.360;9.736;2022-08-16T01:29:10;14.55;;;12.98;;
30647;SDS011;17683;53.360;9.736;2022-08-16T01:31:40;14.38;;;13.05;;
30647;SDS011;17683;53.360;9.736;2022-08-16T01:34:06;16.95;;;14.15;;
30647;SDS011;17683;53.360;9.736;2022-08-16T01:36:32;15.35;;;13.82;;
30647;SDS011;17683;53.360;9.736;2022-08-16T01:38:59;15.10;;;13.52;;
30647;SDS011;17683;53.360;9.736;2022-08-16T01:41:42;16.02;;;14.45;;
30647;SDS011;17683;53.360;9.736;2022-08-16T01:44:10;15.38;;;13.98;;
30647;SDS011;17683;53.360;9.736;2022-08-16T01:46:55;16.63;;;14.88;;
30647;SDS011;17683;53.360;9.736;2022-08-16T01:51:57;15.45;;;14.05;;
30647;SDS011;17683;53.360;9.736;2022-08-16T01:54:26;14.90;;;13.50;;
30647;SDS011;17683;53.360;9.736;2022-08-16T01:56:51;15.35;;;13.95;;
30647;SDS011;17683;53.360;9.736;2022-08-16T01:59:18;16.08;;;14.40;;
30647;SDS011;17683;53.360;9.736;2022-08-16T02:01:46;16.15;;;13.82;;
30647;SDS011;17683;53.360;9.736;2022-08-16T02:04:14;14.98;;;13.02;;
30647;SDS011;17683;53.360;9.736;2022-08-16T02:06:41;15.50;;;14.00;;
30647;SDS011;17683;53.360;9.736;2022-08-16T02:09:07;15.95;;;14.43;;
30647;SDS011;17683;53.360;9.736;2022-08-16T02:11:34;15.38;;;13.93;;
30647;SDS011;17683;53.360;9.736;2022-08-16T02:14:02;15.48;;;13.98;;
30647;SDS011;17683;53.360;9.736;2022-08-16T02:16:28;15.48;;;13.90;;
30647;SDS011;17683;53.360;9.736;2022-08-16T02:18:54;16.20;;;14.70;;
30647;SDS011;17683;53.360;9.736;2022-08-16T02:21:20;15.65;;;14.18;;
30647;SDS011;17683;53.360;9.736;2022-08-16T02:23:46;16.65;;;14.65;;
30647;SDS011;17683;53.360;9.736;2022-08-16T02:26:12;14.85;;;13.48;;
30647;SDS011;17683;53.360;9.736;2022-08-16T02:28:39;16.55;;;14.55;;
30647;SDS011;17683;53.360;9.736;2022-08-16T02:31:07;15.75;;;14.13;;
30647;SDS011;17683;53.360;9.736;2022-08-16T02:33:35;13.90;;;12.60;;
30647;SDS011;17683;53.360;9.736;2022-08-16T02:36:01;15.05;;;13.65;;
30647;SDS011;17683;53.360;9.736;2022-08-16T02:38:28;14.98;;;13.48;;
30647;SDS011;17683;53.360;9.736;2022-08-16T02:40:54;15.40;;;11.90;;
30647;SDS011;17683;53.360;9.736;2022-08-16T02:43:25;15.63;;;13.63;;
30647;SDS011;17683;53.360;9.736;2022-08-16T02:45:53;14.88;;;13.38;;
30647;SDS011;17683;53.360;9.736;2022-08-16T02:48:20;14.77;;;13.38;;
30647;SDS011;17683;53.360;9.736;2022-08-16T02:50:46;16.55;;;14.32;;
30647;SDS011;17683;53.360;9.736;2022-08-16T02:53:12;16.45;;;14.88;;
30647;SDS011;17683;53.360;9.736;2022-08-16T02:55:38;15.63;;;13.80;;
30647;SDS011;17683;53.360;9.736;2022-08-16T02:58:03;16.58;;;14.98;;
30647;SDS011;17683;53.360;9.736;2022-08-16T03:00:29;17.88;;;14.70;;
30647;SDS011;17683;53.360;9.736;2022-08-16T03:02:55;18.83;;;15.50;;
30647;SDS011;17683;53.360;9.736;2022-08-16T03:05:21;16.02;;;14.32;;
30647;SDS011;17683;53.360;9.736;2022-08-16T03:07:48;17.40;;;15.57;;
30647;SDS011;17683;53.360;9.736;2022-08-16T03:10:13;15.45;;;13.95;;
30647;SDS011;17683;53.360;9.736;2022-08-16T03:12:39;15.43;;;13.95;;
30647;SDS011;17683;53.360;9.736;2022-08-16T03:15:08;15.50;;;13.90;;
30647;SDS011;17683;53.360;9.736;2022-08-16T03:17:36;14.57;;;13.15;;
30647;SDS011;17683;53.360;9.736;2022-08-16T03:20:05;14.80;;;13.40;;
30647;SDS011;17683;53.360;9.736;2022-08-16T03:22:32;14.27;;;12.77;;
30647;SDS011;17683;53.360;9.736;2022-08-16T03:24:59;15.73;;;14.27;;
30647;SDS011;17683;53.360;9.736;2022-08-16T03:27:27;15.68;;;14.18;;
30647;SDS011;17683;53.360;9.736;2022-08-16T03:29:54;15.13;;;13.60;;
30647;SDS011;17683;53.360;9.736;2022-08-16T03:32:19;15.68;;;13.10;;
30647;SDS011;17683;53.360;9.736;2022-08-16T03:34:45;15.30;;;12.95;;
30647;SDS011;17683;53.360;9.736;2022-08-16T03:37:12;15.88;;;14.25;;
30647;SDS011;17683;53.360;9.736;2022-08-16T03:39:38;16.48;;;14.77;;
30647;SDS011;17683;53.360;9.736;2022-08-16T03:42:04;14.40;;;12.90;;
30647;SDS011;17683;53.360;9.736;2022-08-16T03:44:31;16.95;;;15.15;;
30647;SDS011;17683;53.360;9.736;2022-08-16T03:46:57;20.05;;;16.70;;
30647;SDS011;17683;53.360;9.736;2022-08-16T03:49:23;17.42;;;15.63;;
30647;SDS011;17683;53.360;9.736;2022-08-16T03:51:49;17.30;;;15.60;;
30647;SDS011;17683;53.360;9.736;2022-08-16T03:54:14;19.63;;;17.63;;
30647;SDS011;17683;53.360;9.736;2022-08-16T03:56:40;21.30;;;17.15;;
30647;SDS011;17683;53.360;9.736;2022-08-16T03:59:06;20.52;;;18.48;;
30647;SDS011;17683;53.360;9.736;2022-08-16T04:01:32;22.30;;;19.38;;
30647;SDS011;17683;53.360;9.736;2022-08-16T04:03:58;20.73;;;18.73;;
30647;SDS011;17683;53.360;9.736;2022-08-16T04:06:24;23.33;;;19.02;;
30647;SDS011;17683;53.360;9.736;2022-08-16T04:08:50;22.80;;;20.42;;
30647;SDS011;17683;53.360;9.736;2022-08-16T04:11:15;21.38;;;19.33;;
30647;SDS011;17683;53.360;9.736;2022-08-16T04:13:42;23.42;;;19.17;;
30647;SDS011;17683;53.360;9.736;2022-08-16T04:16:08;19.77;;;17.98;;
30647;SDS011;17683;53.360;9.736;2022-08-16T04:18:35;21.02;;;18.48;;
30647;SDS011;17683;53.360;9.736;2022-08-16T04:21:02;21.05;;;18.80;;
30647;SDS011;17683;53.360;9.736;2022-08-16T04:23:29;23.17;;;20.70;;
30647;SDS011;17683;53.360;9.736;2022-08-16T04:25:55;21.00;;;18.77;;
30647;SDS011;17683;53.360;9.736;2022-08-16T04:28:21;21.80;;;19.52;;
30647;SDS011;17683;53.360;9.736;2022-08-16T04:30:46;21.58;;;19.25;;
30647;SDS011;17683;53.360;9.736;2022-08-16T04:33:12;22.77;;;20.55;;
30647;SDS011;17683;53.360;9.736;2022-08-16T04:35:38;21.67;;;19.58;;
30647;SDS011;17683;53.360;9.736;2022-08-16T04:38:04;21.73;;;19.42;;
30647;SDS011;17683;53.360;9.736;2022-08-16T04:40:30;22.10;;;19.85;;
30647;SDS011;17683;53.360;9.736;2022-08-16T04:42:56;23.95;;;21.58;;
30647;SDS011;17683;53.360;9.736;2022-08-16T04:45:23;24.58;;;21.98;;
30647;SDS011;17683;53.360;9.736;2022-08-16T04:47:49;22.52;;;20.23;;
30647;SDS011;17683;53.360;9.736;2022-08-16T04:50:18;24.13;;;21.73;;
30647;SDS011;17683;53.360;9.736;2022-08-16T04:55:16;23.65;;;21.20;;
30647;SDS011;17683;53.360;9.736;2022-08-16T04:57:45;23.52;;;21.13;;
30647;SDS011;17683;53.360;9.736;2022-08-16T05:00:14;23.00;;;20.63;;
30647;SDS011;17683;53.360;9.736;2022-08-16T05:02:43;23.38;;;21.05;;
30647;SDS011;17683;53.360;9.736;2022-08-16T05:05:10;21.60;;;19.30;;
30647;SDS011;17683;53.360;9.736;2022-08-16T05:07:37;23.95;;;20.83;;
30647;SDS011;17683;53.360;9.736;2022-08-16T05:10:04;22.92;;;20.70;;
30647;SDS011;17683;53.360;9.736;2022-08-16T05:12:32;22.70;;;20.35;;
30647;SDS011;17683;53.360;9.736;2022-08-16T05:14:58;23.10;;;20.80;;
30647;SDS011;17683;53.360;9.736;2022-08-16T05:17:24;24.17;;;21.70;;
30647;SDS011;17683;53.360;9.736;2022-08-16T05:19:50;26.00;;;21.83;;
30647;SDS011;17683;53.360;9.736;2022-08-16T05:22:16;25.45;;;22.95;;
30647;SDS011;17683;53.360;9.736;2022-08-16T05:24:42;27.90;;;23.65;;
30647;SDS011;17683;53.360;9.736;2022-08-16T05:27:09;24.67;;;22.15;;
30647;SDS011;17683;53.360;9.736;2022-08-16T05:29:34;26.50;;;23.85;;
30647;SDS011;17683;53.360;9.736;2022-08-16T05:32:00;26.08;;;23.27;;
30647;SDS011;17683;53.360;9.736;2022-08-16T05:34:27;26.65;;;23.95;;
30647;SDS011;17683;53.360;9.736;2022-08-16T05:36:53;28.77;;;25.38;;
30647;SDS011;17683;53.360;9.736;2022-08-16T05:39:22;27.52;;;24.65;;
30647;SDS011;17683;53.360;9.736;2022-08-16T05:41:49;26.75;;;24.10;;
30647;SDS011;17683;53.360;9.736;2022-08-16T05:44:15;30.30;;;26.83;;
30647;SDS011;17683;53.360;9.736;2022-08-16T05:46:42;29.00;;;25.50;;
30647;SDS011;17683;53.360;9.736;2022-08-16T05:49:09;28.65;;;25.65;;
30647;SDS011;17683;53.360;9.736;2022-08-16T05:51:40;27.00;;;24.30;;
30647;SDS011;17683;53.360;9.736;2022-08-16T05:54:07;28.42;;;25.33;;
30647;SDS011;17683;53.360;9.736;2022-08-16T05:56:33;33.42;;;28.60;;
30647;SDS011;17683;53.360;9.736;2022-08-16T05:58:59;27.83;;;24.98;;
30647;SDS011;17683;53.360;9.736;2022-08-16T06:01:25;28.25;;;25.25;;
30647;SDS011;17683;53.360;9.736;2022-08-16T06:03:52;29.92;;;26.80;;
30647;SDS011;17683;53.360;9.736;2022-08-16T06:06:19;29.27;;;26.15;;
30647;SDS011;17683;53.360;9.736;2022-08-16T06:08:46;28.90;;;25.77;;
30647;SDS011;17683;53.360;9.736;2022-08-16T06:11:12;29.88;;;26.38;;
30647;SDS011;17683;53.360;9.736;2022-08-16T06:13:37;27.92;;;25.13;;
30647;SDS011;17683;53.360;9.736;2022-08-16T06:16:04;30.10;;;26.80;;
30647;SDS011;17683;53.360;9.736;2022-08-16T06:18:30;29.63;;;25.63;;
30647;SDS011;17683;53.360;9.736;2022-08-16T06:20:57;31.20;;;27.27;;
30647;SDS011;17683;53.360;9.736;2022-08-16T06:23:25;29.58;;;26.45;;
30647;SDS011;17683;53.360;9.736;2022-08-16T06:25:51;35.88;;;29.20;;
30647;SDS011;17683;53.360;9.736;2022-08-16T06:28:17;28.67;;;25.75;;
30647;SDS011;17683;53.360;9.736;2022-08-16T06:30:44;30.80;;;27.45;;
30647;SDS011;17683;53.360;9.736;2022-08-16T06:33:11;27.52;;;24.23;;
30647;SDS011;17683;53.360;9.736;2022-08-16T06:35:38;27.38;;;24.48;;
30647;SDS011;17683;53.360;9.736;2022-08-16T06:38:04;27.67;;;24.52;;
30647;SDS011;17683;53.360;9.736;2022-08-16T06:40:31;29.30;;;26.08;;
30647;SDS011;17683;53.360;9.736;2022-08-16T06:42:58;27.08;;;24.27;;
30647;SDS011;17683;53.360;9.736;2022-08-16T06:45:24;27.73;;;24.88;;
30647;SDS011;17683;53.360;9.736;2022-08-16T06:47:50;23.33;;;21.02;;
30647;SDS011;17683;53.360;9.736;2022-08-16T06:50:16;23.20;;;19.85;;
30647;SDS011;17683;53.360;9.736;2022-08-16T06:52:43;24.95;;;21.75;;
30647;SDS011;17683;53.360;9.736;2022-08-16T06:55:10;30.90;;;24.90;;
30647;SDS011;17683;53.360;9.736;2022-08-16T06:57:36;20.15;;;18.13;;
30647;SDS011;17683;53.360;9.736;2022-08-16T07:00:03;23.85;;;20.30;;
30647;SDS011;17683;53.360;9.736;2022-08-16T07:02:40;19.10;;;17.17;;
30647;SDS011;17683;53.360;9.736;2022-08-16T07:05:07;21.92;;;19.65;;
30647;SDS011;17683;53.360;9.736;2022-08-16T07:07:33;22.50;;;20.20;;
30647;SDS011;17683;53.360;9.736;2022-08-16T07:10:00;19.13;;;17.15;;
30647;SDS011;17683;53.360;9.736;2022-08-16T07:12:27;22.67;;;19.90;;
30647;SDS011;17683;53.360;9.736;2022-08-16T07:14:53;24.13;;;21.52;;
30647;SDS011;17683;53.360;9.736;2022-08-16T07:17:18;21.70;;;19.50;;
30647;SDS011;17683;53.360;9.736;2022-08-16T07:19:47;22.02;;;19.80;;
30647;SDS011;17683;53.360;9.736;2022-08-16T07:22:13;23.13;;;19.50;;
30647;SDS011;17683;53.360;9.736;2022-08-16T07:24:39;20.02;;;17.65;;
30647;SDS011;17683;53.360;9.736;2022-08-16T07:27:05;20.42;;;18.42;;
30647;SDS011;17683;53.360;9.736;2022-08-16T07:29:31;18.10;;;16.30;;
30647;SDS011;17683;53.360;9.736;2022-08-16T07:31:57;14.48;;;12.98;;
30647;SDS011;17683;53.360;9.736;2022-08-16T07:34:24;16.95;;;15.20;;
30647;SDS011;17683;53.360;9.736;2022-08-16T07:36:50;19.98;;;17.92;;
30647;SDS011;17683;53.360;9.736;2022-08-16T07:39:16;14.90;;;13.23;;
30647;SDS011;17683;53.360;9.736;2022-08-16T07:41:41;13.77;;;12.35;;
30647;SDS011;17683;53.360;9.736;2022-08-16T07:44:08;15.57;;;12.82;;
30647;SDS011;17683;53.360;9.736;2022-08-16T07:46:34;13.50;;;11.13;;
30647;SDS011;17683;53.360;9.736;2022-08-16T07:49:00;17.23;;;13.27;;
30647;SDS011;17683;53.360;9.736;2022-08-16T07:51:28;12.45;;;10.35;;
30647;SDS011;17683;53.360;9.736;2022-08-16T07:54:02;13.52;;;12.15;;
30647;SDS011;17683;53.360;9.736;2022-08-16T07:56:30;12.48;;;11.18;;
30647;SDS011;17683;53.360;9.736;2022-08-16T07:58:59;12.20;;;10.40;;
30647;SDS011;17683;53.360;9.736;2022-08-16T08:01:25;13.27;;;10.88;;
30647;SDS011;17683;53.360;9.736;2022-08-16T08:03:54;12.88;;;11.45;;
30647;SDS011;17683;53.360;9.736;2022-08-16T08:06:23;13.50;;;11.35;;
30647;SDS011;17683;53.360;9.736;2022-08-16T08:08:53;15.90;;;12.05;;
30647;SDS011;17683;53.360;9.736;2022-08-16T08:11:20;13.38;;;11.48;;
30647;SDS011;17683;53.360;9.736;2022-08-16T08:13:47;12.50;;;9.88;;
30647;SDS011;17683;53.360;9.736;2022-08-16T08:16:15;11.07;;;9.93;;
30647;SDS011;17683;53.360;9.736;2022-08-16T08:18:41;12.32;;;9.55;;
30647;SDS011;17683;53.360;9.736;2022-08-16T08:21:09;13.00;;;8.32;;
30647;SDS011;17683;53.360;9.736;2022-08-16T08:23:34;13.90;;;8.48;;
30647;SDS011;17683;53.360;9.736;2022-08-16T08:26:01;9.43;;;8.52;;
30647;SDS011;17683;53.360;9.736;2022-08-16T08:28:27;9.90;;;8.50;;
30647;SDS011;17683;53.360;9.736;2022-08-16T08:30:54;9.32;;;7.85;;
30647;SDS011;17683;53.360;9.736;2022-08-16T08:33:20;14.13;;;9.65;;
30647;SDS011;17683;53.360;9.736;2022-08-16T08:35:49;7.80;;;7.10;;
30647;SDS011;17683;53.360;9.736;2022-08-16T08:38:14;11.30;;;7.90;;
30647;SDS011;17683;53.360;9.736;2022-08-16T08:40:41;9.35;;;7.95;;
30647;SDS011;17683;53.360;9.736;2022-08-16T08:43:08;9.80;;;7.85;;
30647;SDS011;17683;53.360;9.736;2022-08-16T08:45:37;11.75;;;10.55;;
30647;SDS011;17683;53.360;9.736;2022-08-16T08:48:04;9.95;;;8.02;;
30647;SDS011;17683;53.360;9.736;2022-08-16T08:50:30;9.32;;;7.53;;
30647;SDS011;17683;53.360;9.736;2022-08-16T08:52:56;8.13;;;7.32;;
30647;SDS011;17683;53.360;9.736;2022-08-16T08:55:22;10.02;;;9.02;;
30647;SDS011;17683;53.360;9.736;2022-08-16T08:57:49;10.35;;;8.52;;
30647;SDS011;17683;53.360;9.736;2022-08-16T09:00:17;9.15;;;8.25;;
30647;SDS011;17683;53.360;9.736;2022-08-16T09:02:44;9.73;;;8.27;;
30647;SDS011;17683;53.360;9.736;2022-08-16T09:05:12;11.35;;;8.30;;
30647;SDS011;17683;53.360;9.736;2022-08-16T09:07:38;11.73;;;9.05;;
30647;SDS011;17683;53.360;9.736;2022-08-16T09:10:05;14.98;;;9.55;;
30647;SDS011;17683;53.360;9.736;2022-08-16T09:12:31;8.30;;;7.50;;
30647;SDS011;17683;53.360;9.736;2022-08-16T09:14:58;11.90;;;8.15;;
30647;SDS011;17683;53.360;9.736;2022-08-16T09:17:24;8.57;;;7.60;;
30647;SDS011;17683;53.360;9.736;2022-08-16T09:19:51;10.23;;;7.40;;
30647;SDS011;17683;53.360;9.736;2022-08-16T09:22:19;14.00;;;8.73;;
30647;SDS011;17683;53.360;9.736;2022-08-16T09:24:46;12.77;;;7.90;;
30647;SDS011;17683;53.360;9.736;2022-08-16T09:27:12;9.60;;;8.60;;
30647;SDS011;17683;53.360;9.736;2022-08-16T09:29:38;10.57;;;7.88;;
30647;SDS011;17683;53.360;9.736;2022-08-16T09:32:04;10.63;;;7.95;;
30647;SDS011;17683;53.360;9.736;2022-08-16T09:34:30;8.93;;;8.02;;
30647;SDS011;17683;53.360;9.736;2022-08-16T09:36:57;11.07;;;8.00;;
30647;SDS011;17683;53.360;9.736;2022-08-16T09:39:23;11.63;;;7.22;;
30647;SDS011;17683;53.360;9.736;2022-08-16T09:41:50;13.20;;;7.53;;
30647;SDS011;17683;53.360;9.736;2022-08-16T09:44:21;13.10;;;8.60;;
30647;SDS011;17683;53.360;9.736;2022-08-16T09:46:48;14.52;;;8.82;;
30647;SDS011;17683;53.360;9.736;2022-08-16T09:49:15;8.30;;;7.03;;
30647;SDS011;17683;53.360;9.736;2022-08-16T09:51:41;9.65;;;7.03;;
30647;SDS011;17683;53.360;9.736;2022-08-16T09:54:07;8.23;;;7.25;;
30647;SDS011;17683;53.360;9.736;2022-08-16T09:56:35;8.13;;;7.10;;
30647;SDS011;17683;53.360;9.736;2022-08-16T09:59:02;9.30;;;7.50;;
30647;SDS011;17683;53.360;9.736;2022-08-16T10:01:30;13.73;;;7.47;;
30647;SDS011;17683;53.360;9.736;2022-08-16T10:03:55;11.95;;;7.85;;
30647;SDS011;17683;53.360;9.736;2022-08-16T10:06:22;10.25;;;8.00;;
30647;SDS011;17683;53.360;9.736;2022-08-16T10:08:48;9.40;;;7.18;;
30647;SDS011;17683;53.360;9.736;2022-08-16T10:11:15;19.38;;;8.10;;
30647;SDS011;17683;53.360;9.736;2022-08-16T10:14:00;8.35;;;7.45;;
30647;SDS011;17683;53.360;9.736;2022-08-16T10:16:26;9.38;;;7.63;;
30647;SDS011;17683;53.360;9.736;2022-08-16T10:18:52;8.52;;;6.53;;
30647;SDS011;17683;53.360;9.736;2022-08-16T10:21:17;9.30;;;6.57;;
30647;SDS011;17683;53.360;9.736;2022-08-16T10:23:44;9.48;;;7.32;;
30647;SDS011;17683;53.360;9.736;2022-08-16T10:26:10;9.10;;;7.43;;
30647;SDS011;17683;53.360;9.736;2022-08-16T10:28:36;10.18;;;7.07;;
30647;SDS011;17683;53.360;9.736;2022-08-16T10:31:03;11.25;;;7.22;;
30647;SDS011;17683;53.360;9.736;2022-08-16T10:33:31;9.75;;;6.45;;
30647;SDS011;17683;53.360;9.736;2022-08-16T10:35:58;7.53;;;6.70;;
30647;SDS011;17683;53.360;9.736;2022-08-16T10:38:25;8.35;;;7.55;;
30647;SDS011;17683;53.360;9.736;2022-08-16T10:40:51;7.32;;;6.60;;
30647;SDS011;17683;53.360;9.736;2022-08-16T10:43:18;8.40;;;6.90;;
30647;SDS011;17683;53.360;9.736;2022-08-16T10:45:44;7.15;;;6.45;;
30647;SDS011;17683;53.360;9.736;2022-08-16T10:48:12;9.63;;;6.40;;
30647;SDS011;17683;53.360;9.736;2022-08-16T10:50:38;7.28;;;6.53;;
30647;SDS011;17683;53.360;9.736;2022-08-16T10:53:04;7.30;;;6.57;;
30647;SDS011;17683;53.360;9.736;2022-08-16T10:55:35;8.25;;;5.97;;
30647;SDS011;17683;53.360;9.736;2022-08-16T10:58:05;7.38;;;6.68;;
30647;SDS011;17683;53.360;9.736;2022-08-16T11:00:33;8.13;;;6.05;;
30647;SDS011;17683;53.360;9.736;2022-08-16T11:03:02;9.98;;;6.20;;
30647;SDS011;17683;53.360;9.736;2022-08-16T11:05:33;19.90;;;6.72;;
30647;SDS011;17683;53.360;9.736;2022-08-16T11:08:00;12.77;;;5.97;;
30647;SDS011;17683;53.360;9.736;2022-08-16T11:10:28;15.98;;;6.45;;
30647;SDS011;17683;53.360;9.736;2022-08-16T11:12:57;12.82;;;7.03;;
30647;SDS011;17683;53.360;9.736;2022-08-16T11:15:23;18.23;;;7.50;;
30647;SDS011;17683;53.360;9.736;2022-08-16T11:17:50;11.68;;;6.40;;
30647;SDS011;17683;53.360;9.736;2022-08-16T11:20:18;16.30;;;7.38;;
30647;SDS011;17683;53.360;9.736;2022-08-16T11:22:46;19.00;;;7.68;;
30647;SDS011;17683;53.360;9.736;2022-08-16T11:25:13;19.33;;;7.45;;
30647;SDS011;17683;53.360;9.736;2022-08-16T11:27:45;17.60;;;7.85;;
30647;SDS011;17683;53.360;9.736;2022-08-16T11:30:11;11.25;;;7.60;;
30647;SDS011;17683;53.360;9.736;2022-08-16T11:32:38;22.83;;;8.13;;
30647;SDS011;17683;53.360;9.736;2022-08-16T11:35:11;9.90;;;7.57;;
30647;SDS011;17683;53.360;9.736;2022-08-16T11:37:41;9.02;;;7.35;;
30647;SDS011;17683;53.360;9.736;2022-08-16T11:40:10;8.98;;;8.00;;
30647;SDS011;17683;53.360;9.736;2022-08-16T11:42:37;11.38;;;8.35;;
30647;SDS011;17683;53.360;9.736;2022-08-16T11:45:03;12.20;;;7.28;;
30647;SDS011;17683;53.360;9.736;2022-08-16T11:47:29;10.60;;;8.55;;
30647;SDS011;17683;53.360;9.736;2022-08-16T11:49:54;12.88;;;8.43;;
30647;SDS011;17683;53.360;9.736;2022-08-16T11:52:20;11.15;;;8.25;;
30647;SDS011;17683;53.360;9.736;2022-08-16T11:54:48;10.70;;;8.23;;
30647;SDS011;17683;53.360;9.736;2022-08-16T11:57:13;10.77;;;8.57;;
30647;SDS011;17683;53.360;9.736;2022-08-16T11:59:39;9.63;;;8.63;;
30647;SDS011;17683;53.360;9.736;2022-08-16T12:02:06;10.45;;;8.75;;
30647;SDS011;17683;53.360;9.736;2022-08-16T12:04:32;13.93;;;9.00;;
30647;SDS011;17683;53.360;9.736;2022-08-16T12:06:59;11.02;;;8.93;;
30647;SDS011;17683;53.360;9.736;2022-08-16T12:09:29;12.23;;;9.13;;
30647;SDS011;17683;53.360;9.736;2022-08-16T12:11:56;9.23;;;8.32;;
30647;SDS011;17683;53.360;9.736;2022-08-16T12:14:22;8.95;;;8.05;;
30647;SDS011;17683;53.360;9.736;2022-08-16T12:16:48;9.98;;;7.95;;
30647;SDS011;17683;53.360;9.736;2022-08-16T12:19:14;8.43;;;7.60;;
30647;SDS011;17683;53.360;9.736;2022-08-16T12:21:41;12.60;;;7.88;;
30647;SDS011;17683;53.360;9.736;2022-08-16T12:24:07;11.38;;;8.50;;
30647;SDS011;17683;53.360;9.736;2022-08-16T12:26:33;9.45;;;7.53;;
30647;SDS011;17683;53.360;9.736;2022-08-16T12:28:59;8.93;;;7.55;;
30647;SDS011;17683;53.360;9.736;2022-08-16T12:31:27;9.18;;;7.75;;
30647;SDS011;17683;53.360;9.736;2022-08-16T12:33:53;10.57;;;8.75;;
30647;SDS011;17683;53.360;9.736;2022-08-16T12:36:19;8.23;;;7.43;;
30647;SDS011;17683;53.360;9.736;2022-08-16T12:38:45;9.57;;;8.52;;
30647;SDS011;17683;53.360;9.736;2022-08-16T12:41:12;8.93;;;8.02;;
30647;SDS011;17683;53.360;9.736;2022-08-16T12:43:39;10.48;;;7.82;;
30647;SDS011;17683;53.360;9.736;2022-08-16T12:46:08;13.40;;;8.93;;
30647;SDS011;17683;53.360;9.736;2022-08-16T12:48:36;11.82;;;8.38;;
30647;SDS011;17683;53.360;9.736;2022-08-16T12:51:22;9.60;;;7.72;;
30647;SDS011;17683;53.360;9.736;2022-08-16T12:53:56;11.48;;;7.78;;
30647;SDS011;17683;53.360;9.736;2022-08-16T12:56:24;9.95;;;7.10;;
30647;SDS011;17683;53.360;9.736;2022-08-16T12:58:52;9.30;;;6.80;;
30647;SDS011;17683;53.360;9.736;2022-08-16T13:01:21;7.50;;;6.72;;
30647;SDS011;17683;53.360;9.736;2022-08-16T13:03:51;7.55;;;6.85;;
30647;SDS011;17683;53.360;9.736;2022-08-16T13:06:19;7.55;;;6.70;;
30647;SDS011;17683;53.360;9.736;2022-08-16T13:08:49;6.45;;;5.75;;
30647;SDS011;17683;53.360;9.736;2022-08-16T13:11:16;9.32;;;6.70;;
30647;SDS011;17683;53.360;9.736;2022-08-16T13:13:46;6.90;;;5.65;;
30647;SDS011;17683;53.360;9.736;2022-08-16T13:16:12;9.88;;;6.18;;
30647;SDS011;17683;53.360;9.736;2022-08-16T13:18:38;7.63;;;5.85;;
30647;SDS011;17683;53.360;9.736;2022-08-16T13:21:05;7.72;;;6.47;;
30647;SDS011;17683;53.360;9.736;2022-08-16T13:23:32;7.90;;;5.90;;
30647;SDS011;17683;53.360;9.736;2022-08-16T13:25:58;11.82;;;7.25;;
30647;SDS011;17683;53.360;9.736;2022-08-16T13:28:24;11.02;;;5.95;;
30647;SDS011;17683;53.360;9.736;2022-08-16T13:30:51;10.52;;;5.63;;
30647;SDS011;17683;53.360;9.736;2022-08-16T13:33:32;6.80;;;5.93;;
30647;SDS011;17683;53.360;9.736;2022-08-16T13:36:02;6.20;;;5.60;;
30647;SDS011;17683;53.360;9.736;2022-08-16T13:38:30;7.85;;;6.28;;
30647;SDS011;17683;53.360;9.736;2022-08-16T13:40:57;7.53;;;6.38;;
30647;SDS011;17683;53.360;9.736;2022-08-16T13:43:26;6.70;;;6.10;;
30647;SDS011;17683;53.360;9.736;2022-08-16T13:45:54;9.32;;;5.78;;
30647;SDS011;17683;53.360;9.736;2022-08-16T13:48:21;6.68;;;5.97;;
30647;SDS011;17683;53.360;9.736;2022-08-16T13:50:50;10.32;;;5.90;;
30647;SDS011;17683;53.360;9.736;2022-08-16T13:53:17;8.00;;;7.20;;
30647;SDS011;17683;53.360;9.736;2022-08-16T13:55:43;6.90;;;5.97;;
30647;SDS011;17683;53.360;9.736;2022-08-16T13:58:09;6.30;;;5.78;;
30647;SDS011;17683;53.360;9.736;2022-08-16T14:00:35;7.05;;;5.88;;
30647;SDS011;17683;53.360;9.736;2022-08-16T14:03:01;7.93;;;6.40;;
30647;SDS011;17683;53.360;9.736;2022-08-16T14:05:27;8.35;;;6.05;;
30647;SDS011;17683;53.360;9.736;2022-08-16T14:07:53;8.55;;;7.15;;
30647;SDS011;17683;53.360;9.736;2022-08-16T14:10:18;7.03;;;6.35;;
30647;SDS011;17683;53.360;9.736;2022-08-16T14:12:44;6.85;;;6.10;;
30647;SDS011;17683;53.360;9.736;2022-08-16T14:15:11;7.35;;;6.28;;
30647;SDS011;17683;53.360;9.736;2022-08-16T14:17:40;7.85;;;7.05;;
30647;SDS011;17683;53.360;9.736;2022-08-16T14:20:06;7.00;;;6.30;;
30647;SDS011;17683;53.360;9.736;2022-08-16T14:22:34;7.22;;;5.82;;
30647;SDS011;17683;53.360;9.736;2022-08-16T14:25:03;7.35;;;6.13;;
30647;SDS011;17683;53.360;9.736;2022-08-16T14:27:33;9.00;;;6.22;;
30647;SDS011;17683;53.360;9.736;2022-08-16T14:29:59;9.60;;;5.65;;
30647;SDS011;17683;53.360;9.736;2022-08-16T14:32:26;8.38;;;6.35;;
30647;SDS011;17683;53.360;9.736;2022-08-16T14:34:54;8.93;;;6.13;;
30647;SDS011;17683;53.360;9.736;2022-08-16T14:37:21;6.43;;;5.90;;
30647;SDS011;17683;53.360;9.736;2022-08-16T14:39:47;7.95;;;6.30;;